Date,TemperatureHighF,TemperatureAvgF,TemperatureLowF,DewpointHighF,DewpointAvgF,DewpointLowF,HumidityHigh,HumidityAvg,HumidityLow,PressureMaxIn,PressureMinIn,WindSpeedMaxMPH,WindSpeedAvgMPH,GustSpeedMaxMPH,PrecipitationSumIn
2013-6-1,85.0,74.8,61.0,69.0,63.6,60.0,96,70,49,29.94,29.79,14,6,23,0.03
2013-6-2,77.0,71.6,65.0,66.0,61.2,-99.9,93,73,51,29.81,29.68,15,7,27,0.09
2013-6-3,65.0,54.4,44.0,56.0,46.5,41.0,91,76,49,29.92,29.79,13,5,18,0.01
2013-6-4,63.0,53.0,43.0,42.0,38.0,27.0,85,60,25,30.10,29.92,13,6,23,0.00
2013-6-5,68.0,55.1,41.0,50.0,43.5,39.0,92,68,39,30.14,30.02,5,1,9,0.00
2013-6-6,58.0,54.7,50.0,56.0,50.1,45.0,95,85,65,30.03,29.82,10,3,22,1.18
2013-6-7,62.0,59.6,58.0,59.0,56.8,55.0,95,90,87,29.82,29.71,10,4,22,0.50
2013-6-8,61.0,57.2,54.0,58.0,55.5,53.0,98,94,81,30.02,29.70,10,3,13,0.15
2013-6-9,72.0,61.1,50.0,56.0,53.0,49.0,97,77,48,30.13,30.02,8,2,14,0.01
2013-6-10,65.0,61.4,55.0,61.0,57.0,51.0,94,86,65,30.12,29.71,9,4,27,0.20
2013-6-11,65.0,61.7,58.0,63.0,58.9,54.0,96,91,83,29.72,29.59,15,7,23,0.20
2013-6-12,58.0,55.2,54.0,54.0,52.5,52.0,92,91,88,29.76,29.72,10,6,16,0.19
2013-6-13,55.0,55.0,55.0,53.0,53.0,53.0,94,94,93,29.67,29.60,3,1,9,0.94
2013-6-14,68.0,59.4,53.0,57.0,54.4,51.0,96,84,64,29.89,29.67,14,4,23,0.01
2013-6-15,70.0,60.7,48.0,55.0,49.1,42.0,97,69,37,29.98,29.89,13,4,20,0.00
2013-6-16,68.0,62.2,52.0,63.0,55.8,49.0,94,80,59,29.93,29.66,15,5,21,0.09
2013-6-17,76.0,66.3,57.0,64.0,58.8,55.0,96,78,48,29.89,29.79,19,5,25,0.05
2013-6-18,68.0,59.6,53.0,61.0,54.3,47.0,97,84,56,29.95,29.84,8,2,13,0.01
2013-6-19,64.0,55.2,44.0,51.0,43.2,36.0,97,68,37,30.14,29.95,11,3,20,0.01
2013-6-20,76.0,55.3,40.0,52.0,44.6,39.0,96,72,35,30.19,30.13,10,2,17,0.00
2013-6-22,82.0,79.1,75.0,64.0,62.4,59.0,66,57,47,30.14,30.00,10,7,17,0.00
2013-6-23,87.0,74.7,68.0,70.0,65.8,64.0,94,75,49,30.08,29.99,13,6,26,0.06
2013-6-24,86.0,74.5,69.0,69.0,66.0,62.0,87,75,48,30.03,29.93,14,4,21,0.02
2013-6-25,80.0,71.5,62.0,70.0,65.8,61.0,96,83,61,29.96,29.78,13,3,21,0.25
2013-6-26,78.0,70.9,64.0,68.0,65.1,62.0,96,82,63,29.81,29.76,10,3,14,0.23
2013-6-27,79.0,66.9,60.0,70.0,63.4,59.0,98,89,63,29.80,29.57,7,0,15,0.13
2013-6-28,69.0,65.7,63.0,65.0,63.4,61.0,97,92,79,29.57,29.44,7,2,9,0.62
2013-6-29,71.0,65.2,60.0,66.0,62.5,59.0,100,91,73,29.66,29.46,12,2,18,0.37
2013-6-30,79.0,68.7,57.0,68.0,63.1,56.0,98,84,63,29.88,29.66,8,2,11,0.06